Time;durP1;ratioP1;P1;durP2;ratioP2;P2;SDS_P1;SDS_P2;PMS_P1;PMS_P2;Temp;Humidity;BMP_temperature;BMP_pressure;BME280_temperature;BME280_humidity;BME280_pressure;Samples;Min_cycle;Max_cycle;Signal;HPM_P1;HPM_P2
2023/07/17 00:01:10;;;;;;;6.23;3.80;;;19.90;82.20;;;19.85;58.09;100881.41;5073626;28;20650;-74
2023/07/17 00:03:42;;;;;;;7.17;4.00;;;19.90;82.90;;;19.93;57.48;100879.25;5073929;28;20189;-73
2023/07/17 00:06:13;;;;;;;5.33;4.37;;;19.90;83.00;;;19.92;57.72;100882.22;5073783;28;20221;-74
2023/07/17 00:08:45;;;;;;;5.03;3.87;;;19.90;83.20;;;19.83;57.74;100883.53;5073880;28;20194;-74
2023/07/17 00:11:17;;;;;;;7.00;4.43;;;19.90;82.20;;;19.78;57.99;100883.31;5073799;28;20212;-74
2023/07/17 00:13:51;;;;;;;6.73;4.03;;;19.80;82.40;;;19.69;58.28;100880.03;5074274;28;20198;-74
2023/07/17 00:16:22;;;;;;;5.63;4.10;;;19.70;82.80;;;19.72;58.34;100880.44;5073572;28;20276;-74
2023/07/17 00:18:54;;;;;;;7.90;4.57;;;19.80;84.00;;;19.76;57.90;100885.44;5073670;28;20194;-74
2023/07/17 00:21:26;;;;;;;5.10;3.97;;;19.80;82.90;;;19.75;58.33;100887.31;5073408;28;20669;-74
2023/07/17 00:23:58;;;;;;;5.60;4.50;;;19.80;83.00;;;19.81;58.41;100886.44;5073282;28;20553;-74
2023/07/17 00:26:31;;;;;;;6.90;4.33;;;19.90;83.00;;;19.78;58.75;100891.47;5073535;28;20249;-74
2023/07/17 00:29:25;;;;;;;6.43;4.07;;;19.90;83.70;;;19.82;58.62;100890.84;5073208;28;20556;-74
2023/07/17 00:31:58;;;;;;;6.57;4.37;;;19.90;83.90;;;19.70;59.05;100890.66;5073159;28;20209;-74
2023/07/17 00:34:30;;;;;;;4.57;4.07;;;19.80;83.90;;;19.65;59.04;100890.50;5073563;28;20228;-74
2023/07/17 00:37:02;;;;;;;5.67;4.40;;;19.60;84.30;;;19.65;58.86;100898.66;5073382;28;20320;-74
2023/07/17 00:39:34;;;;;;;5.40;4.27;;;19.70;84.10;;;19.58;59.29;100897.84;5073484;28;20289;-74
2023/07/17 00:42:06;;;;;;;7.30;4.53;;;19.60;84.70;;;19.61;59.46;100902.00;5073234;28;20213;-74
2023/07/17 00:44:39;;;;;;;5.73;3.77;;;19.70;84.90;;;19.53;59.29;100905.78;5073140;28;20280;-74
2023/07/17 00:47:13;;;;;;;5.70;4.37;;;19.60;84.80;;;19.55;59.38;100903.72;5073340;28;20229;-74
2023/07/17 00:49:47;;;;;;;7.73;4.57;;;19.50;84.90;;;19.51;59.27;100902.47;5073606;28;20196;-74
2023/07/17 00:52:20;;;;;;;4.83;4.03;;;19.50;84.90;;;19.50;59.46;100902.66;5073593;28;20276;-74
2023/07/17 00:54:53;;;;;;;6.33;4.27;;;19.50;84.90;;;19.50;60.27;100900.78;5073314;28;20292;-74
2023/07/17 00:57:26;;;;;;;6.47;4.40;;;19.60;85.50;;;19.61;59.47;100908.28;5074000;28;20299;-74
2023/07/17 01:00:00;;;;;;;5.23;4.17;;;19.70;85.00;;;19.63;59.41;100910.75;5077435;28;20221;-74
2023/07/17 01:02:32;;;;;;;7.60;4.50;;;19.70;85.00;;;19.54;59.35;100904.75;5077372;28;20217;-74
2023/07/17 01:05:04;;;;;;;7.80;4.73;;;19.60;84.90;;;19.35;60.30;100915.66;5076938;28;20640;-75
2023/07/17 01:07:37;;;;;;;5.33;4.30;;;19.40;86.00;;;19.34;60.37;100908.53;5077265;28;20280;-74
2023/07/17 01:10:11;;;;;;;6.93;4.23;;;19.40;86.50;;;19.24;60.97;100909.00;5076847;28;20190;-74
2023/07/17 01:12:43;;;;;;;6.50;4.33;;;19.30;86.90;;;19.30;60.64;100910.00;5077163;28;20272;-74
2023/07/17 01:15:16;;;;;;;7.47;4.37;;;19.30;87.40;;;19.38;60.18;100902.47;5077004;28;20284;-74
2023/07/17 01:17:48;;;;;;;7.70;4.87;;;19.50;86.60;;;19.31;60.38;100904.38;5076980;28;20214;-74
2023/07/17 01:20:23;;;;;;;5.60;4.43;;;19.40;86.70;;;19.34;60.16;100903.13;5076670;28;20285;-74
2023/07/17 01:23:01;;;;;;;5.40;4.50;;;19.40;86.50;;;19.26;60.26;100901.47;5076917;28;20190;-74
2023/07/17 01:25:33;;;;;;;7.37;4.13;;;19.40;86.50;;;19.33;60.17;100894.13;5076793;28;20221;-74
2023/07/17 01:28:05;;;;;;;5.17;4.60;;;19.40;86.20;;;19.17;61.27;100908.16;5076492;28;20644;-74
2023/07/17 01:30:36;;;;;;;7.90;4.50;;;19.20;87.30;;;19.14;60.76;100911.31;5076789;28;20194;-73
2023/07/17 01:33:09;;;;;;;6.03;4.70;;;19.20;87.50;;;19.02;61.58;100908.41;5077175;28;20194;-74
2023/07/17 01:35:41;;;;;;;6.70;4.20;;;19.00;88.30;;;19.02;61.33;100908.41;5076898;28;20225;-74
2023/07/17 01:38:14;;;;;;;6.97;4.50;;;19.10;88.20;;;18.94;61.63;100905.09;5076958;28;20216;-73
2023/07/17 01:40:46;;;;;;;6.50;4.33;;;19.00;88.20;;;18.93;62.03;100903.41;5076747;28;20637;-74
2023/07/17 01:43:18;;;;;;;5.53;4.37;;;19.00;89.90;;;18.95;61.43;100901.31;5076862;28;20254;-73
2023/07/17 01:45:50;;;;;;;6.77;3.97;;;19.00;89.30;;;18.95;61.42;100901.31;5076647;28;20260;-73
2023/07/17 01:48:22;;;;;;;5.97;4.20;;;19.00;88.80;;;18.99;61.90;100897.97;5076117;28;20232;-73
2023/07/17 01:50:54;;;;;;;5.93;4.50;;;19.10;89.20;;;19.07;61.99;100891.50;5076049;28;20649;-74
2023/07/17 01:53:28;;;;;;;5.50;4.70;;;19.20;88.90;;;19.06;61.57;100897.97;5076097;28;20243;-74
2023/07/17 01:55:57;;;;;;;7.67;4.53;;;19.20;88.50;;;19.04;61.48;100889.22;5076475;28;20313;-74
2023/07/17 01:58:29;;;;;;;5.83;4.40;;;19.20;88.70;;;19.05;61.34;100890.84;5076196;28;20255;-74
2023/07/17 02:01:01;;;;;;;8.67;4.70;;;19.10;88.70;;;18.94;61.66;100883.38;5076231;28;20281;-74
2023/07/17 02:03:34;;;;;;;6.27;4.20;;;19.00;88.70;;;18.96;61.60;100889.41;5076171;28;20194;-74
2023/07/17 02:06:06;;;;;;;4.90;4.40;;;19.00;88.70;;;19.04;61.14;100894.63;5076106;28;20222;-74
2023/07/17 02:08:39;;;;;;;8.87;5.07;;;19.20;88.50;;;18.97;61.19;100894.63;5075253;28;20209;-74
2023/07/17 02:11:11;;;;;;;6.07;4.43;;;19.10;88.60;;;18.94;61.22;100880.66;5076067;28;20220;-74
2023/07/17 02:13:43;;;;;;;6.73;4.60;;;19.10;88.40;;;18.87;61.99;100896.13;5075709;28;20638;-74
2023/07/17 02:16:15;;;;;;;6.87;4.23;;;19.00;89.20;;;18.91;61.81;100894.63;5075908;28;20312;-74
2023/07/17 02:18:47;;;;;;;8.57;4.70;;;19.00;90.00;;;18.86;62.17;100903.41;5075840;28;20210;-74
2023/07/17 02:21:19;;;;;;;4.93;4.27;;;18.90;90.00;;;18.88;61.96;100906.75;5075495;28;20634;-74
2023/07/17 02:23:52;;;;;;;5.10;4.30;;;19.00;90.00;;;18.82;61.72;100906.75;5075475;28;20637;-74
2023/07/17 02:26:24;;;;;;;6.30;4.10;;;18.90;89.40;;;18.81;61.76;100902.38;5075318;28;20783;-74
2023/07/17 02:28:58;;;;;;;5.63;4.30;;;18.90;89.40;;;18.69;61.64;100908.44;5075742;28;20225;-74
2023/07/17 02:31:29;;;;;;;7.27;4.50;;;18.80;89.30;;;18.65;61.76;100890.91;5075376;28;20233;-74
2023/07/17 02:34:01;;;;;;;6.57;4.43;;;18.70;89.40;;;18.56;61.72;100896.75;5075678;28;20197;-74
2023/07/17 02:36:33;;;;;;;5.67;4.17;;;18.60;89.80;;;18.61;61.54;100905.09;5075412;28;20279;-74
2023/07/17 02:39:06;;;;;;;6.90;4.70;;;18.70;89.50;;;18.61;61.87;100900.50;5075553;28;20640;-74
2023/07/17 02:41:39;;;;;;;6.37;4.57;;;18.70;89.40;;;18.58;61.96;100900.09;5075775;28;20631;-73
2023/07/17 02:44:11;;;;;;;5.27;4.50;;;18.70;89.80;;;18.64;61.84;100899.25;5075457;28;20281;-73
2023/07/17 02:46:43;;;;;;;7.03;4.90;;;18.70;89.90;;;18.53;62.05;100889.03;5074973;28;20312;-73
2023/07/17 02:49:15;;;;;;;5.63;4.67;;;18.70;90.20;;;18.48;62.48;100892.34;5075321;28;20185;-73
2023/07/17 02:51:47;;;;;;;6.03;4.27;;;18.50;90.20;;;18.54;62.43;100893.41;5074987;28;20724;-72
2023/07/17 02:54:23;;;;;;;8.50;5.50;;;18.60;90.30;;;18.54;62.66;100885.28;5075264;28;20647;-72
2023/07/17 02:56:55;;;;;;;6.17;4.60;;;18.70;90.20;;;18.56;62.55;100902.19;5074992;28;20263;-72
2023/07/17 02:59:27;;;;;;;6.80;4.70;;;18.70;90.10;;;18.48;62.67;100897.75;5075162;28;20222;-72
2023/07/17 03:01:59;;;;;;;6.57;4.80;;;18.60;90.30;;;18.43;62.60;100905.66;5075105;28;20208;-72
2023/07/17 03:04:31;;;;;;;7.27;4.67;;;18.60;90.50;;;18.35;63.01;100905.06;5074982;28;20555;-72
2023/07/17 03:07:03;;;;;;;7.17;5.07;;;18.40;90.60;;;18.35;63.08;100915.91;5074591;28;20239;-72
2023/07/17 03:09:36;;;;;;;6.10;5.00;;;18.40;90.70;;;18.30;63.24;100919.22;5074942;28;20284;-73
2023/07/17 03:12:11;;;;;;;7.67;4.23;;;18.40;90.60;;;18.25;63.31;100910.88;5075149;28;20284;-72
2023/07/17 03:14:43;;;;;;;7.07;4.83;;;18.30;90.70;;;18.21;63.32;100909.63;5074883;28;20223;-72
2023/07/17 03:17:14;;;;;;;10.13;4.73;;;18.30;90.90;;;18.22;62.97;100917.53;5074383;28;20282;-72
2023/07/17 03:19:46;;;;;;;5.80;4.40;;;18.30;91.40;;;18.15;63.40;100915.88;5074077;28;20544;-72
2023/07/17 03:22:18;;;;;;;6.07;4.70;;;18.30;91.00;;;18.10;63.61;100918.34;5074407;28;20635;-72
2023/07/17 03:24:52;;;;;;;6.10;4.53;;;18.20;91.10;;;18.04;63.98;100913.75;5074648;28;20190;-72
2023/07/17 03:27:24;;;;;;;8.93;5.00;;;18.20;91.30;;;17.96;63.70;100920.19;5074585;28;20288;-72
2023/07/17 03:29:56;;;;;;;7.03;5.20;;;18.00;91.30;;;17.94;64.21;100929.56;5074493;28;20299;-72
2023/07/17 03:32:30;;;;;;;6.13;4.77;;;18.00;91.50;;;17.98;64.12;100955.22;5074500;28;20288;-72
2023/07/17 03:35:02;;;;;;;7.80;5.30;;;18.10;91.60;;;18.03;63.30;100961.69;5073985;28;20532;-73
2023/07/17 03:37:34;;;;;;;9.20;4.90;;;18.20;91.30;;;17.92;62.63;100962.25;5073896;28;20695;-73
2023/07/17 03:40:10;;;;;;;6.80;4.67;;;18.10;90.70;;;17.83;62.67;100954.50;5074312;28;20213;-73
2023/07/17 03:42:43;;;;;;;6.67;4.87;;;17.90;90.70;;;17.65;63.14;100952.34;5074106;28;20216;-72
2023/07/17 03:45:15;;;;;;;7.97;4.50;;;17.80;90.90;;;17.67;63.21;100945.69;5074194;28;20190;-72
2023/07/17 03:47:50;;;;;;;7.47;4.53;;;17.90;91.40;;;17.51;64.06;100964.09;5074124;28;20280;-72
2023/07/17 03:50:23;;;;;;;7.73;4.67;;;17.70;91.10;;;17.54;63.75;100961.00;5074127;28;20185;-72
2023/07/17 03:52:54;;;;;;;5.93;4.60;;;17.70;91.10;;;17.57;63.30;100975.00;5073770;28;20668;-72
2023/07/17 03:55:28;;;;;;;9.47;4.47;;;17.80;91.10;;;17.64;64.19;100972.31;5073861;28;20225;-72
2023/07/17 03:57:59;;;;;;;7.50;4.73;;;17.90;91.30;;;17.77;63.63;100993.25;5073681;28;20720;-72
2023/07/17 04:00:31;;;;;;;10.20;5.00;;;18.00;91.50;;;17.70;63.71;100976.97;5074184;28;20266;-72
2023/07/17 04:03:03;;;;;;;6.93;4.80;;;17.90;91.00;;;17.70;62.99;100966.97;5074053;28;20194;-72
2023/07/17 04:05:35;;;;;;;7.93;4.33;;;17.90;90.80;;;17.71;62.95;100965.91;5073831;28;20324;-72
2023/07/17 04:08:07;;;;;;;8.87;5.03;;;17.90;90.80;;;17.78;62.14;100956.97;5073745;28;20657;-72
2023/07/17 04:10:41;;;;;;;8.00;4.57;;;18.00;90.60;;;17.83;62.57;100954.50;5073538;28;20631;-72
2023/07/17 04:13:13;;;;;;;8.23;4.80;;;18.10;90.50;;;17.93;62.26;100957.69;5073846;28;20301;-72
2023/07/17 04:15:45;;;;;;;10.90;4.90;;;18.20;90.60;;;18.01;62.42;100960.22;5073723;28;20221;-72
2023/07/17 04:18:17;;;;;;;6.10;4.60;;;18.30;90.60;;;18.02;61.77;100959.16;5073684;28;20237;-72
2023/07/17 04:20:50;;;;;;;9.50;4.83;;;18.30;90.40;;;18.09;62.19;100954.59;5073750;28;20232;-72
2023/07/17 04:23:22;;;;;;;10.30;4.67;;;18.40;90.30;;;18.09;62.43;100970.84;5073983;28;20285;-72
2023/07/17 04:25:56;;;;;;;8.53;4.50;;;18.30;90.40;;;18.12;62.20;100965.03;5073513;28;20322;-73
2023/07/17 04:28:27;;;;;;;7.30;4.43;;;18.40;90.30;;;18.14;63.22;100957.53;5074019;28;20216;-72
2023/07/17 04:31:02;;;;;;;9.50;4.80;;;18.40;90.90;;;18.15;62.37;100970.88;5073795;28;20193;-72
2023/07/17 04:33:34;;;;;;;6.20;4.37;;;18.40;90.40;;;18.18;63.42;100975.88;5073609;28;20190;-72
2023/07/17 04:36:11;;;;;;;10.03;4.57;;;18.40;91.20;;;18.16;62.17;100986.09;5074041;28;20304;-72
2023/07/17 04:38:43;;;;;;;8.57;5.00;;;18.40;90.40;;;18.18;61.94;100994.84;5073211;28;20772;-72
2023/07/17 04:41:17;;;;;;;7.57;4.47;;;18.40;90.40;;;18.21;62.64;101001.75;5073342;28;20281;-72
2023/07/17 04:43:49;;;;;;;7.27;4.87;;;18.50;90.70;;;18.19;62.51;100992.97;5073407;28;20716;-73
2023/07/17 04:46:21;;;;;;;7.83;4.17;;;18.50;90.40;;;18.22;62.37;100996.13;5073648;28;20312;-68
2023/07/17 04:48:53;;;;;;;8.33;5.60;;;18.50;90.40;;;18.23;62.37;100992.38;5073272;28;20200;-62
2023/07/17 04:51:25;;;;;;;5.67;4.20;;;18.50;90.30;;;18.27;63.53;100992.81;5073053;28;20232;-73
2023/07/17 04:53:57;;;;;;;7.87;4.30;;;18.60;90.90;;;18.23;64.58;100973.41;5073129;28;20282;-73
2023/07/17 04:56:31;;;;;;;7.87;4.37;;;18.60;91.60;;;18.21;65.90;100985.50;5073362;28;20256;-73
2023/07/17 04:59:04;;;;;;;6.83;4.40;;;18.50;92.50;;;18.23;66.34;101000.50;5072952;28;20741;-73
2023/07/17 05:01:36;;;;;;;8.57;4.80;;;18.50;92.50;;;18.22;66.95;101003.41;5073052;28;20637;-73
2023/07/17 05:04:09;;;;;;;5.77;4.10;;;18.50;92.80;;;18.18;66.81;100996.75;5073294;28;20247;-73
2023/07/17 05:06:40;;;;;;;8.00;4.30;;;18.50;92.80;;;18.11;67.79;100998.59;5073181;28;20291;-73
2023/07/17 05:09:12;;;;;;;7.07;4.80;;;18.40;93.60;;;18.15;67.81;100999.88;5073014;28;20642;-73
2023/07/17 05:11:46;;;;;;;9.47;4.80;;;18.40;93.80;;;18.13;67.83;100991.09;5073284;28;20284;-73
2023/07/17 05:14:18;;;;;;;9.73;5.03;;;18.40;93.80;;;18.13;67.99;100993.81;5073404;28;20194;-73
2023/07/17 05:16:50;;;;;;;9.97;4.90;;;18.40;94.00;;;18.05;67.48;100996.69;5073126;28;20316;-73
2023/07/17 05:19:21;;;;;;;6.60;4.40;;;18.40;93.70;;;18.15;67.94;100991.75;5073113;28;20300;-73
2023/07/17 05:21:53;;;;;;;8.43;5.33;;;18.40;94.00;;;18.08;68.19;100999.00;5073073;28;20656;-73
2023/07/17 05:24:26;;;;;;;8.03;4.83;;;18.40;94.20;;;18.17;68.16;100995.06;5073129;28;20212;-74
2023/07/17 05:27:00;;;;;;;12.93;5.70;;;18.50;94.40;;;18.18;68.30;100991.34;5073062;28;20320;-72
2023/07/17 05:29:32;;;;;;;25.87;7.07;;;18.50;94.90;;;18.13;66.89;100993.81;5073104;28;20186;-73
2023/07/17 05:32:05;;;;;;;9.43;5.10;;;18.40;93.80;;;18.09;68.01;100987.13;5073062;28;20244;-73
2023/07/17 05:34:36;;;;;;;8.20;5.00;;;18.40;94.00;;;18.03;66.60;100993.34;5073021;28;20193;-73
2023/07/17 05:37:09;;;;;;;7.70;4.87;;;18.40;93.50;;;18.09;66.49;100992.53;5072910;28;20287;-73
2023/07/17 05:39:41;;;;;;;6.80;4.50;;;18.40;93.30;;;18.05;65.88;100991.25;5072907;28;20232;-73
2023/07/17 05:42:15;;;;;;;6.70;4.60;;;18.40;93.00;;;18.09;65.40;100989.81;5072491;28;20249;-73
2023/07/17 05:44:47;;;;;;;4.77;4.10;;;18.40;92.80;;;18.13;64.41;100985.69;5075943;28;20614;-73
2023/07/17 05:47:19;;;;;;;7.07;4.60;;;18.50;92.40;;;18.15;64.18;100976.28;5076199;28;20735;-73
2023/07/17 05:49:50;;;;;;;8.93;4.53;;;18.50;92.00;;;18.20;64.04;100975.69;5076456;28;20255;-73
2023/07/17 05:52:22;;;;;;;6.97;4.13;;;18.60;91.80;;;18.21;64.01;100985.50;5076502;28;20221;-73
2023/07/17 05:54:54;;;;;;;6.40;4.10;;;18.60;91.90;;;18.19;64.25;100984.84;5076131;28;20642;-73
2023/07/17 05:57:28;;;;;;;5.67;4.53;;;18.50;91.90;;;18.15;64.14;100997.16;5076064;28;20642;-73
2023/07/17 06:00:00;;;;;;;7.73;4.00;;;18.50;91.90;;;18.16;64.11;101004.22;5076275;28;20241;-73
2023/07/17 06:02:32;;;;;;;8.70;4.63;;;18.50;91.90;;;18.09;63.61;100998.78;5076303;28;20197;-74
2023/07/17 06:05:04;;;;;;;7.17;4.20;;;18.40;91.50;;;18.10;63.22;101005.88;5076216;28;20208;-72
2023/07/17 06:07:36;;;;;;;7.67;4.60;;;18.50;91.30;;;18.17;63.30;100997.78;5076184;28;20198;-71
2023/07/17 06:10:12;;;;;;;7.63;4.10;;;18.50;91.40;;;18.25;63.50;101014.69;5076347;28;20237;-73
2023/07/17 06:12:45;;;;;;;8.43;4.60;;;18.60;91.70;;;18.30;63.18;101022.22;5076311;28;20193;-73
2023/07/17 06:15:17;;;;;;;6.03;4.13;;;18.60;91.50;;;18.34;64.06;101034.31;5075993;28;20208;-73
2023/07/17 06:17:49;;;;;;;9.40;4.50;;;18.70;91.70;;;18.36;63.86;101031.38;5075677;28;20660;-73
2023/07/17 06:20:21;;;;;;;8.27;4.40;;;18.70;91.70;;;18.35;64.03;101025.16;5075917;28;20263;-73
2023/07/17 06:22:53;;;;;;;6.73;4.10;;;18.70;91.70;;;18.31;62.63;101029.31;5075860;28;20642;-72
2023/07/17 06:25:26;;;;;;;14.23;4.53;;;18.70;91.00;;;18.33;62.25;101032.63;5075819;28;20229;-72
2023/07/17 06:27:59;;;;;;;9.00;4.27;;;18.70;90.80;;;18.27;61.98;101033.47;5075510;28;20225;-72
2023/07/17 06:30:31;;;;;;;10.57;4.33;;;18.60;90.70;;;18.23;61.98;101043.88;5075843;28;20212;-72
2023/07/17 06:33:03;;;;;;;6.50;4.20;;;18.60;90.60;;;18.28;62.02;101042.44;5075380;28;20646;-72
2023/07/17 06:35:34;;;;;;;7.23;3.93;;;18.60;90.70;;;18.27;62.32;101041.59;5075634;28;20256;-72
2023/07/17 06:38:07;;;;;;;7.33;4.43;;;18.60;90.80;;;18.30;61.98;101033.06;5075641;28;20272;-72
2023/07/17 06:40:39;;;;;;;6.67;4.47;;;18.70;90.70;;;18.31;62.32;101042.03;5075185;28;20760;-73
2023/07/17 06:43:12;;;;;;;7.43;4.03;;;18.70;90.80;;;18.37;62.49;101039.34;5075394;28;20217;-72
2023/07/17 06:45:45;;;;;;;8.20;4.13;;;18.70;91.00;;;18.44;62.29;101045.63;5075441;28;20312;-72
2023/07/17 06:48:17;;;;;;;6.57;4.30;;;18.80;90.90;;;18.43;62.65;101040.38;5075435;28;20196;-73
2023/07/17 06:50:49;;;;;;;8.77;4.10;;;18.80;91.20;;;18.37;61.85;101050.19;5075364;28;20196;-72
2023/07/17 06:53:21;;;;;;;8.77;4.27;;;18.70;90.50;;;18.35;62.10;101046.84;5075335;28;20251;-72
2023/07/17 06:56:00;;;;;;;7.30;4.20;;;18.70;90.70;;;18.35;62.39;101041.44;5075161;28;20261;-72
2023/07/17 06:58:33;;;;;;;6.67;3.80;;;18.70;90.70;;;18.41;62.34;101042.47;5074960;28;20280;-72
2023/07/17 07:01:05;;;;;;;7.47;3.90;;;18.70;90.80;;;18.47;62.12;101049.78;5074776;28;20576;-72
2023/07/17 07:03:37;;;;;;;5.07;4.07;;;18.80;90.70;;;18.52;62.02;101045.47;5075136;28;20190;-72
2023/07/17 07:06:09;;;;;;;8.40;4.20;;;18.90;90.60;;;18.51;62.00;101042.94;5074961;28;20222;-72
2023/07/17 07:08:42;;;;;;;6.70;4.20;;;18.90;90.50;;;18.63;61.91;101050.28;5074724;28;20240;-73
2023/07/17 07:11:14;;;;;;;7.27;4.50;;;19.00;90.70;;;18.69;61.65;101054.91;5075040;28;20200;-73
2023/07/17 07:13:47;;;;;;;6.67;4.10;;;19.10;90.50;;;18.80;60.77;101047.19;5074935;28;20289;-73
2023/07/17 07:16:19;;;;;;;6.47;3.83;;;19.20;90.10;;;18.87;60.95;101048.84;5074490;28;20776;-72
2023/07/17 07:18:52;;;;;;;6.47;4.00;;;19.20;90.10;;;18.90;60.51;101055.75;5074523;28;20554;-72
2023/07/17 07:21:23;;;;;;;7.10;4.00;;;19.20;89.50;;;18.97;60.55;101046.56;5074976;28;20244;-72
2023/07/17 07:23:55;;;;;;;9.17;3.63;;;19.30;89.60;;;19.06;59.78;101055.34;5075066;28;20189;-72
2023/07/17 07:26:28;;;;;;;16.63;4.30;;;19.40;89.20;;;19.16;60.48;101058.50;5075164;28;20283;-72
2023/07/17 07:29:01;;;;;;;5.40;3.30;;;19.50;89.60;;;19.18;60.57;101046.38;5075368;28;20273;-73
2023/07/17 07:31:33;;;;;;;6.13;3.90;;;19.60;89.30;;;19.29;59.84;101053.06;5075462;28;20218;-71
2023/07/17 07:34:04;;;;;;;7.27;3.93;;;19.70;88.80;;;19.30;59.20;101053.88;5075602;28;20194;-72
2023/07/17 07:36:36;;;;;;;5.13;3.60;;;19.70;87.80;;;19.30;58.65;101052.00;5074435;28;20771;-72
2023/07/17 07:39:08;;;;;;;5.67;3.30;;;19.70;87.90;;;19.37;58.48;101061.00;5074444;28;20273;-72
2023/07/17 07:41:40;;;;;;;6.30;3.40;;;19.80;87.10;;;19.50;58.70;101063.72;5073920;28;20678;-72
2023/07/17 07:44:13;;;;;;;7.63;3.60;;;19.90;87.20;;;19.51;58.54;101059.97;5074348;28;20611;-72
2023/07/17 07:46:45;;;;;;;6.77;3.50;;;19.90;87.00;;;19.56;58.32;101062.88;5074209;28;20253;-72
2023/07/17 07:49:18;;;;;;;4.80;3.53;;;19.90;87.10;;;19.56;57.91;101067.47;5074229;28;20268;-72
2023/07/17 07:51:49;;;;;;;8.20;3.90;;;19.90;87.10;;;19.58;57.59;101066.22;5073845;28;20666;-72
2023/07/17 07:54:22;;;;;;;5.10;2.83;;;19.90;85.50;;;19.68;58.45;101072.06;5074134;28;20202;-73
2023/07/17 07:56:56;;;;;;;4.33;3.27;;;20.00;87.30;;;19.70;58.00;101064.53;5074009;28;20229;-73
2023/07/17 07:59:29;;;;;;;5.50;3.30;;;20.10;86.10;;;19.71;57.57;101082.50;5073647;28;20558;-73
2023/07/17 08:02:02;;;;;;;7.43;3.40;;;20.10;85.30;;;19.82;58.62;101072.03;5073990;28;20193;-73
2023/07/17 08:04:33;;;;;;;5.03;3.20;;;20.20;86.80;;;19.89;57.27;101079.13;5073978;28;20186;-73
2023/07/17 08:07:05;;;;;;;3.23;2.80;;;20.30;85.00;;;19.99;55.83;101071.38;5073424;28;20332;-73
2023/07/17 08:09:37;;;;;;;4.83;2.90;;;20.30;83.40;;;20.10;55.45;101073.41;5073865;28;20186;-73
2023/07/17 08:12:11;;;;;;;6.47;3.10;;;20.50;82.80;;;20.15;54.62;101072.75;5073873;28;20193;-73
2023/07/17 08:14:44;;;;;;;4.50;2.80;;;20.50;82.20;;;20.24;54.13;101077.75;5073885;28;20269;-73
2023/07/17 08:17:15;;;;;;;4.30;2.43;;;20.60;80.90;;;20.31;53.68;101072.31;5073438;28;20236;-73
2023/07/17 08:19:47;;;;;;;7.03;3.00;;;20.70;80.60;;;20.49;51.49;101080.59;5073414;28;20213;-73
2023/07/17 08:22:19;;;;;;;6.83;3.17;;;20.80;77.70;;;20.44;52.83;101066.81;5073691;28;20638;-73
2023/07/17 08:24:51;;;;;;;5.07;2.50;;;20.80;79.00;;;20.46;53.86;101070.16;5073711;28;20204;-73
2023/07/17 08:27:23;;;;;;;5.33;3.00;;;20.80;79.60;;;20.54;51.53;101069.91;5073647;28;20293;-73
2023/07/17 08:29:57;;;;;;;5.73;2.77;;;20.90;78.30;;;20.59;51.48;101074.69;5073281;28;20185;-73
2023/07/17 08:32:29;;;;;;;5.20;3.13;;;20.90;77.40;;;20.66;51.86;101070.88;5073871;28;20289;-73
2023/07/17 08:35:01;;;;;;;6.33;3.33;;;21.00;77.50;;;20.70;50.56;101066.69;5073162;28;20652;-73
2023/07/17 08:37:33;;;;;;;5.43;2.83;;;21.10;75.70;;;20.78;51.29;101070.19;5073239;28;20280;-73
2023/07/17 08:40:05;;;;;;;6.80;3.07;;;21.10;77.30;;;20.93;49.90;101071.53;5074238;28;20312;-73
2023/07/17 08:42:44;;;;;;;4.90;2.90;;;21.30;75.20;;;21.02;50.68;101069.41;5073353;28;20292;-73
2023/07/17 08:45:18;;;;;;;3.63;2.67;;;21.40;75.80;;;21.16;49.70;101071.81;5073391;28;20208;-73
2023/07/17 08:47:52;;;;;;;8.30;3.30;;;21.50;74.20;;;21.22;49.00;101068.22;5073995;28;20195;-73
2023/07/17 08:50:26;;;;;;;6.70;3.07;;;21.60;74.50;;;21.31;48.18;101063.31;5073486;28;20198;-73
2023/07/17 08:53:00;;;;;;;5.13;3.00;;;21.70;72.10;;;21.38;47.35;101069.53;5073355;28;20224;-73
2023/07/17 08:55:33;;;;;;;5.00;3.27;;;21.80;71.30;;;21.52;45.43;101071.09;5073284;28;20235;-73
2023/07/17 08:58:07;;;;;;;3.27;2.60;;;21.90;68.40;;;21.61;44.92;101074.38;5073018;28;20664;-73
2023/07/17 09:00:42;;;;;;;5.83;3.10;;;22.00;67.80;;;21.68;44.63;101075.97;5073281;28;20236;-72
2023/07/17 09:03:14;;;;;;;4.90;2.77;;;22.10;67.00;;;21.74;44.40;101080.53;5073290;28;20193;-72
2023/07/17 09:05:48;;;;;;;7.07;3.27;;;22.10;66.50;;;21.80;43.30;101077.94;5073206;28;20600;-72
2023/07/17 09:08:19;;;;;;;3.70;2.90;;;22.10;65.00;;;21.81;44.87;101080.47;5073670;28;20212;-72
2023/07/17 09:11:06;;;;;;;5.77;3.27;;;22.10;67.40;;;21.87;43.61;101076.84;5072941;28;20634;-72
2023/07/17 09:13:41;;;;;;;8.00;2.70;;;22.20;66.10;;;21.91;44.98;101074.50;5073177;28;20190;-73
2023/07/17 09:16:24;;;;;;;4.40;2.87;;;22.30;67.70;;;22.05;44.27;101076.88;5073116;28;20301;-73
2023/07/17 09:18:57;;;;;;;5.47;2.80;;;22.40;65.80;;;21.99;45.33;101076.91;5074703;28;20646;-73
2023/07/17 09:21:29;;;;;;;7.27;3.30;;;22.30;67.80;;;21.91;43.92;101078.09;5076977;28;20270;-73
2023/07/17 09:24:02;;;;;;;4.23;2.67;;;22.20;66.00;;;21.97;44.01;101085.34;5077008;28;20284;-73
2023/07/17 09:26:34;;;;;;;4.37;2.97;;;22.20;65.80;;;22.02;43.33;101077.31;5076946;28;20229;-73
2023/07/17 09:29:06;;;;;;;4.37;2.57;;;22.30;64.90;;;22.05;42.13;101076.03;5076585;28;20559;-73
2023/07/17 09:31:40;;;;;;;8.63;3.03;;;22.40;63.30;;;22.19;42.50;101074.81;5076773;28;20244;-73
2023/07/17 09:34:17;;;;;;;5.90;2.90;;;22.50;63.00;;;22.32;41.40;101077.38;5076789;28;20193;-73
2023/07/17 09:36:51;;;;;;;3.93;2.93;;;22.70;61.90;;;22.39;42.09;101083.59;5076531;28;20307;-73
2023/07/17 09:39:25;;;;;;;5.40;2.93;;;22.70;62.70;;;22.36;42.52;101088.69;5076401;28;20707;-73
2023/07/17 09:41:58;;;;;;;3.70;2.93;;;22.60;63.80;;;22.52;41.46;101079.84;5076346;28;20290;-73
2023/07/17 09:44:32;;;;;;;3.70;2.67;;;22.80;62.00;;;22.57;41.85;101069.91;5077176;28;20212;-73
2023/07/17 09:47:05;;;;;;;5.87;2.90;;;22.90;62.40;;;22.73;41.15;101077.50;5076540;28;20319;-73
2023/07/17 09:49:39;;;;;;;6.73;2.97;;;23.00;61.50;;;22.74;40.49;101081.03;5076204;28;20194;-73
2023/07/17 09:52:11;;;;;;;4.27;2.63;;;23.00;60.80;;;22.70;40.05;101080.69;5076127;28;20185;-73
2023/07/17 09:54:45;;;;;;;9.40;3.37;;;23.00;60.10;;;22.85;39.84;101079.41;5076522;28;20206;-73
2023/07/17 09:57:27;;;;;;;12.50;2.90;;;23.10;59.60;;;22.98;39.91;101093.69;5076325;28;20247;-73
2023/07/17 10:00:04;;;;;;;5.33;3.10;;;23.30;59.50;;;22.94;39.39;101086.22;5076471;28;20186;-73
2023/07/17 10:02:48;;;;;;;5.70;3.40;;;23.20;58.90;;;22.79;39.94;101094.00;5076248;28;20259;-73
2023/07/17 10:05:20;;;;;;;5.17;3.03;;;23.00;60.00;;;22.70;40.68;101102.53;5076108;28;20229;-73
2023/07/17 10:07:55;;;;;;;7.63;3.10;;;22.90;62.20;;;22.86;40.73;101094.72;5075909;28;20699;-73
2023/07/17 10:10:28;;;;;;;5.67;3.20;;;23.10;60.90;;;22.84;40.28;101092.25;5076178;28;20189;-73
2023/07/17 10:13:01;;;;;;;6.07;3.50;;;23.10;60.10;;;22.94;41.71;101092.53;5076126;28;20285;-72
2023/07/17 10:15:34;;;;;;;7.30;3.67;;;23.20;61.50;;;22.88;40.83;101098.09;5075997;28;20800;-72
2023/07/17 10:18:13;;;;;;;4.90;3.17;;;23.20;60.40;;;22.80;41.31;101090.22;5077127;28;20220;-72
2023/07/17 10:20:55;;;;;;;7.43;3.40;;;23.00;61.40;;;22.88;41.15;101095.34;5076410;28;20201;-73
2023/07/17 10:23:30;;;;;;;6.10;2.90;;;23.10;61.20;;;22.78;40.61;101092.31;5076328;28;20189;-72
2023/07/17 10:26:12;;;;;;;3.63;3.00;;;22.90;60.00;;;22.83;40.63;101106.13;5080335;28;20308;-72
2023/07/17 10:28:48;;;;;;;6.53;3.17;;;23.00;60.80;;;22.77;40.43;101094.25;5095709;28;20189;-72
2023/07/17 10:31:23;;;;;;;6.27;3.77;;;23.00;59.80;;;22.79;41.20;101088.53;5078796;28;20186;-73
2023/07/17 10:34:03;;;;;;;7.73;3.47;;;23.00;60.50;;;23.01;40.28;101086.97;5075523;28;20185;-73
2023/07/17 10:36:44;;;;;;;8.23;3.37;;;23.20;60.00;;;22.95;40.40;101098.78;5075870;28;20316;-73